Caen, France
Current Conditions -  °F | °C
As of 12:30 PM on Friday 31 Oct 2014 (Local Time) from LFRK Reporting Station
Clear Clear  
Wind Chill: 72°   Ceiling: Unl
Heat Index: 72°   Visibility: 6mi
Dew Point: 54°   Wind: 17mph
Humidity: 53%   Direction: 180°S
Pressure: 30.06"   Gusts: NA
Location:  49.18°N, 0.36°W
Report Text: LFRK 311130Z AUTO 18015KT 9999 NSC 22/12 Q1018
Loading
Personal Weather Stations






























Interactive Weather Map
Tropical Storm Tracking
New forecast layout! Learn more

10-Day Weather Forecast

Advertisements
Track Severe Weather on mobile